Time;durP1;ratioP1;P1;durP2;ratioP2;P2;SDS_P1;SDS_P2;PMS_P1;PMS_P2;Temp;Humidity;BMP_temperature;BMP_pressure;BME280_temperature;BME280_humidity;BME280_pressure;Samples;Min_cycle;Max_cycle;Signal;HPM_P1;HPM_P2
2023/08/01 00:00:05;;;;;;;0.30;0.30;;;20.60;81.60;;;;;;5005774;28;20065;-52
2023/08/01 00:02:37;;;;;;;1.15;0.47;;;20.60;81.40;;;;;;5017569;28;20511;-51
2023/08/01 00:05:14;;;;;;;0.60;0.60;;;20.60;81.30;;;;;;5017629;28;20050;-51
2023/08/01 00:07:43;;;;;;;2.60;0.73;;;20.60;81.30;;;;;;5002285;28;20527;-51
2023/08/01 00:10:10;;;;;;;0.50;0.50;;;20.60;81.20;;;;;;5017309;28;20045;-54
2023/08/01 00:12:42;;;;;;;0.88;0.88;;;20.60;81.10;;;;;;5019605;28;20045;-51
2023/08/01 00:15:09;;;;;;;1.10;1.10;;;20.60;81.00;;;;;;5017999;28;20631;-53
2023/08/01 00:17:40;;;;;;;0.80;0.80;;;20.50;80.90;;;;;;5011168;28;20400;-52
2023/08/01 00:20:10;;;;;;;0.80;0.80;;;20.50;81.20;;;;;;5011409;28;20044;-54
2023/08/01 00:22:39;;;;;;;0.95;0.80;;;20.50;81.00;;;;;;5019882;28;20084;-55
2023/08/01 00:25:06;;;;;;;0.82;0.75;;;20.50;81.30;;;;;;5017033;28;20034;-54
2023/08/01 00:27:37;;;;;;;1.42;1.10;;;20.40;81.20;;;;;;5005419;28;20095;-51
2023/08/01 00:30:07;;;;;;;1.10;1.10;;;20.40;81.20;;;;;;5012376;28;20038;-52
2023/08/01 00:32:35;;;;;;;2.38;1.40;;;20.40;81.30;;;;;;5027924;28;20115;-52
2023/08/01 00:35:04;;;;;;;1.15;1.08;;;20.40;81.30;;;;;;5016630;28;20062;-53
2023/08/01 00:37:33;;;;;;;1.67;1.20;;;20.40;81.30;;;;;;5018086;28;20065;-51
2023/08/01 00:40:01;;;;;;;1.05;1.05;;;20.40;81.40;;;;;;5008077;28;20457;-54
2023/08/01 00:42:30;;;;;;;0.52;0.52;;;20.40;81.60;;;;;;5034258;28;20054;-51
2023/08/01 00:44:59;;;;;;;0.75;0.40;;;20.40;81.70;;;;;;5012606;28;20108;-53
2023/08/01 00:47:26;;;;;;;0.45;0.38;;;20.40;81.70;;;;;;5022343;28;20141;-52
2023/08/01 00:49:55;;;;;;;0.43;0.40;;;20.40;81.80;;;;;;5013933;28;20034;-53
2023/08/01 00:52:26;;;;;;;0.50;0.40;;;20.30;81.70;;;;;;5007607;28;20451;-54
2023/08/01 00:54:57;;;;;;;0.50;0.50;;;20.40;81.80;;;;;;5014579;28;20049;-53
2023/08/01 00:57:23;;;;;;;0.55;0.50;;;20.40;81.80;;;;;;5016319;28;20504;-53
2023/08/01 00:59:54;;;;;;;1.20;0.32;;;20.30;81.80;;;;;;5007030;28;20128;-55
2023/08/01 01:02:20;;;;;;;0.30;0.30;;;20.40;82.00;;;;;;5022920;28;20104;-53
2023/08/01 01:04:50;;;;;;;1.15;0.40;;;20.40;81.90;;;;;;5014674;28;20041;-52
2023/08/01 01:07:21;;;;;;;0.80;0.40;;;20.40;82.10;;;;;;5013621;28;20125;-51
2023/08/01 01:09:48;;;;;;;1.27;0.50;;;20.40;82.00;;;;;;5008843;28;20419;-51
2023/08/01 01:12:17;;;;;;;0.50;0.50;;;20.40;81.80;;;;;;5011662;28;20043;-52
2023/08/01 01:14:46;;;;;;;0.47;0.47;;;20.40;81.80;;;;;;4999425;28;20048;-51
2023/08/01 01:17:13;;;;;;;1.55;0.57;;;20.30;81.50;;;;;;5004837;28;20084;-55
2023/08/01 01:19:40;;;;;;;1.05;0.93;;;20.40;81.40;;;;;;5012957;28;20115;-50
2023/08/01 01:22:16;;;;;;;0.95;0.77;;;20.30;81.40;;;;;;5014792;28;20412;-55
2023/08/01 01:24:44;;;;;;;0.82;0.70;;;20.30;81.70;;;;;;5013004;28;20128;-53
2023/08/01 01:27:12;;;;;;;0.85;0.85;;;20.40;81.30;;;;;;4999781;28;20457;-51
2023/08/01 01:29:40;;;;;;;0.75;0.75;;;20.30;81.10;;;;;;5010106;28;20046;-53
2023/08/01 01:32:10;;;;;;;0.98;0.90;;;20.30;81.20;;;;;;5004756;28;20053;-51
2023/08/01 01:34:40;;;;;;;2.25;1.10;;;20.30;81.00;;;;;;5014651;28;20144;-53
2023/08/01 01:37:06;;;;;;;1.38;0.90;;;20.30;81.10;;;;;;5007306;28;20062;-52
2023/08/01 01:39:36;;;;;;;1.10;1.00;;;20.30;81.30;;;;;;5011605;28;20046;-54
2023/08/01 01:42:03;;;;;;;3.67;1.40;;;20.30;81.20;;;;;;5013752;28;20042;-52
2023/08/01 01:44:34;;;;;;;1.55;1.45;;;20.20;81.10;;;;;;5012105;28;20104;-51
2023/08/01 01:47:06;;;;;;;3.10;1.57;;;20.20;81.30;;;;;;5003874;28;20119;-51
2023/08/01 01:49:35;;;;;;;3.08;1.70;;;20.20;81.40;;;;;;5013407;28;20041;-54
2023/08/01 01:52:04;;;;;;;1.70;1.60;;;20.20;81.40;;;;;;5008800;28;20394;-54
2023/08/01 01:54:37;;;;;;;2.47;2.28;;;20.20;81.30;;;;;;5014730;28;20493;-55
2023/08/01 01:57:06;;;;;;;3.25;2.90;;;20.20;81.10;;;;;;5006806;28;20683;-52
2023/08/01 01:59:35;;;;;;;3.83;2.95;;;20.20;80.80;;;;;;5008562;28;20069;-55
2023/08/01 02:02:11;;;;;;;5.03;2.60;;;20.20;80.90;;;;;;5014432;28;20046;-54
2023/08/01 02:04:37;;;;;;;2.75;2.55;;;20.20;80.70;;;;;;5014434;28;20052;-55
2023/08/01 02:07:09;;;;;;;5.20;2.35;;;20.20;80.50;;;;;;5008546;28;20500;-51
2023/08/01 02:09:43;;;;;;;3.45;2.33;;;20.20;80.50;;;;;;5011105;28;20074;-52
2023/08/01 02:12:16;;;;;;;2.83;2.28;;;20.20;80.50;;;;;;5008318;28;20046;-54
2023/08/01 02:14:43;;;;;;;2.90;2.60;;;20.10;80.20;;;;;;5014277;28;20037;-54
2023/08/01 02:17:13;;;;;;;3.35;2.95;;;20.10;80.00;;;;;;5008811;28;20045;-52
2023/08/01 02:19:40;;;;;;;2.80;2.58;;;20.10;80.00;;;;;;5023833;28;20062;-54
2023/08/01 02:22:07;;;;;;;3.25;2.95;;;20.10;79.70;;;;;;5007604;28;20108;-52
2023/08/01 02:24:37;;;;;;;4.30;2.53;;;20.10;79.40;;;;;;5006259;28;20536;-54
2023/08/01 02:27:04;;;;;;;3.10;2.60;;;20.10;79.40;;;;;;5012454;28;20042;-55
2023/08/01 02:29:39;;;;;;;3.28;2.85;;;20.10;79.30;;;;;;5006758;28;20046;-53
2023/08/01 02:32:06;;;;;;;3.58;3.17;;;20.00;78.60;;;;;;5012564;28;20070;-54
2023/08/01 02:34:33;;;;;;;4.57;3.38;;;20.00;78.70;;;;;;5008240;28;20043;-52
2023/08/01 02:37:08;;;;;;;3.75;3.20;;;20.00;78.50;;;;;;5008603;28;20512;-55
2023/08/01 02:39:36;;;;;;;4.63;3.70;;;20.00;78.40;;;;;;4995589;28;20424;-54
2023/08/01 02:42:04;;;;;;;5.65;3.72;;;20.00;78.30;;;;;;5007025;28;20428;-52
2023/08/01 02:44:33;;;;;;;5.13;3.70;;;19.90;78.20;;;;;;5008211;28;20832;-54
2023/08/01 02:47:11;;;;;;;4.45;3.65;;;19.90;78.20;;;;;;5003471;28;20121;-54
2023/08/01 02:49:37;;;;;;;5.18;3.97;;;19.90;78.20;;;;;;5019716;28;20046;-52
2023/08/01 02:52:05;;;;;;;6.93;4.20;;;19.90;78.40;;;;;;5005511;28;20046;-54
2023/08/01 02:54:34;;;;;;;5.25;4.38;;;19.80;78.10;;;;;;5006037;28;20049;-53
2023/08/01 02:57:01;;;;;;;7.95;5.40;;;19.80;78.10;;;;;;5019389;28;20043;-54
2023/08/01 02:59:27;;;;;;;7.28;5.07;;;19.80;78.00;;;;;;5006160;28;20058;-51
2023/08/01 03:01:59;;;;;;;6.95;5.70;;;19.80;78.00;;;;;;4997863;28;20046;-54
2023/08/01 03:04:26;;;;;;;5.68;5.10;;;19.70;78.00;;;;;;5011548;28;20093;-55
2023/08/01 03:07:11;;;;;;;10.20;6.97;;;19.70;77.90;;;;;;5005813;28;20054;-54
2023/08/01 03:09:38;;;;;;;7.28;6.55;;;19.70;77.70;;;;;;5009216;28;20030;-53
2023/08/01 03:12:04;;;;;;;8.25;6.80;;;19.70;77.60;;;;;;5004034;28;20066;-52
2023/08/01 03:14:36;;;;;;;9.50;6.95;;;19.70;77.40;;;;;;5002519;28;20089;-51
2023/08/01 03:17:03;;;;;;;8.57;6.90;;;19.60;77.40;;;;;;5025093;28;20042;-52
2023/08/01 03:19:29;;;;;;;7.70;6.88;;;19.60;77.50;;;;;;5004913;28;20132;-52
2023/08/01 03:22:00;;;;;;;10.60;7.38;;;19.60;77.40;;;;;;5005676;28;20124;-55
2023/08/01 03:24:26;;;;;;;8.38;7.47;;;19.60;77.50;;;;;;5002851;28;20073;-51
2023/08/01 03:26:53;;;;;;;10.18;7.45;;;19.50;77.40;;;;;;5003991;28;20064;-53
2023/08/01 03:29:21;;;;;;;9.65;7.95;;;19.50;77.20;;;;;;5002460;28;20045;-55
2023/08/01 03:31:47;;;;;;;12.20;8.52;;;19.50;76.90;;;;;;5013433;28;20492;-51
2023/08/01 03:34:16;;;;;;;10.70;8.10;;;19.50;76.80;;;;;;5011720;28;20041;-53
2023/08/01 03:36:47;;;;;;;12.63;8.50;;;19.40;76.50;;;;;;5011504;28;20042;-53
2023/08/01 03:39:16;;;;;;;10.07;9.00;;;19.40;76.50;;;;;;5009676;28;20050;-53
2023/08/01 03:41:45;;;;;;;9.15;8.20;;;19.30;76.60;;;;;;5011809;28;20041;-51
2023/08/01 03:44:23;;;;;;;11.50;8.77;;;19.30;77.50;;;;;;5013309;28;20054;-51
2023/08/01 03:46:56;;;;;;;12.40;8.93;;;19.30;77.00;;;;;;5025159;28;20140;-55
2023/08/01 03:49:22;;;;;;;12.45;9.35;;;19.30;77.00;;;;;;5006332;28;20089;-53
2023/08/01 03:51:49;;;;;;;12.68;10.18;;;19.30;77.20;;;;;;5011796;28;20061;-51
2023/08/01 03:54:19;;;;;;;16.48;10.18;;;19.20;77.30;;;;;;5007528;28;20038;-53
2023/08/01 03:56:51;;;;;;;11.57;9.10;;;19.30;77.20;;;;;;5011997;28;20512;-54
2023/08/01 03:59:21;;;;;;;12.63;9.07;;;19.30;77.20;;;;;;5011017;28;20050;-53
2023/08/01 04:01:50;;;;;;;12.60;9.75;;;19.30;77.30;;;;;;4997305;28;20156;-53
2023/08/01 04:04:17;;;;;;;10.75;8.75;;;19.30;77.30;;;;;;5012320;28;20516;-52
2023/08/01 04:06:43;;;;;;;15.15;10.05;;;19.30;77.10;;;;;;5011782;28;20513;-52
2023/08/01 04:09:17;;;;;;;12.02;8.65;;;19.30;77.20;;;;;;5006185;28;20121;-53
2023/08/01 04:11:44;;;;;;;11.00;8.55;;;19.30;77.20;;;;;;5027299;28;20056;-51
2023/08/01 04:14:13;;;;;;;11.90;8.52;;;19.30;77.40;;;;;;5032575;28;20112;-51
2023/08/01 04:16:40;;;;;;;9.95;8.05;;;19.30;77.30;;;;;;5009354;28;20050;-51
2023/08/01 04:19:16;;;;;;;10.25;7.43;;;19.30;77.30;;;;;;5016821;28;20044;-54
2023/08/01 04:21:43;;;;;;;11.25;7.45;;;19.30;77.30;;;;;;5011384;28;20073;-50
2023/08/01 04:24:10;;;;;;;8.57;7.68;;;19.30;77.40;;;;;;5013643;28;20145;-54
2023/08/01 04:26:39;;;;;;;10.23;6.93;;;19.30;77.20;;;;;;5023477;28;20049;-52
2023/08/01 04:29:06;;;;;;;8.18;7.07;;;19.30;77.30;;;;;;5014396;28;20046;-55
2023/08/01 04:31:34;;;;;;;10.10;6.70;;;19.30;77.40;;;;;;5000838;28;20544;-53
2023/08/01 04:34:07;;;;;;;8.25;6.47;;;19.30;77.20;;;;;;5022285;28;20133;-51
2023/08/01 04:36:36;;;;;;;7.45;6.18;;;19.30;77.30;;;;;;5017489;28;20175;-53
2023/08/01 04:39:03;;;;;;;7.18;5.78;;;19.30;77.20;;;;;;5014486;28;20041;-51
2023/08/01 04:41:30;;;;;;;7.28;5.50;;;19.30;77.30;;;;;;5001459;28;20125;-55
2023/08/01 04:43:56;;;;;;;9.20;6.60;;;19.30;77.20;;;;;;5006954;28;20931;-55
2023/08/01 04:46:23;;;;;;;9.27;5.55;;;19.30;77.30;;;;;;5008643;28;20084;-51
2023/08/01 04:48:50;;;;;;;10.88;6.32;;;19.30;77.40;;;;;;5004108;28;20108;-53
2023/08/01 04:51:16;;;;;;;8.18;5.60;;;19.30;77.40;;;;;;5016111;28;20045;-54
2023/08/01 04:53:43;;;;;;;6.47;5.60;;;19.30;77.50;;;;;;5019320;28;20467;-54
2023/08/01 04:56:10;;;;;;;7.47;5.63;;;19.30;77.40;;;;;;5003828;28;20050;-51
2023/08/01 04:58:37;;;;;;;9.30;5.63;;;19.30;77.40;;;;;;5005061;28;20038;-53
2023/08/01 05:01:03;;;;;;;6.32;4.93;;;19.30;77.30;;;;;;5007533;28;20066;-52
2023/08/01 05:03:30;;;;;;;9.02;5.22;;;19.30;77.30;;;;;;5018312;28;20099;-52
2023/08/01 05:05:57;;;;;;;7.75;5.00;;;19.30;77.10;;;;;;5010171;28;20038;-52
2023/08/01 05:08:24;;;;;;;6.28;5.03;;;19.30;77.10;;;;;;5010454;28;20743;-55
2023/08/01 05:10:50;;;;;;;8.68;5.82;;;19.30;77.00;;;;;;5017922;28;20112;-54
2023/08/01 05:13:17;;;;;;;8.13;5.57;;;19.30;76.90;;;;;;5029464;28;20038;-54
2023/08/01 05:15:47;;;;;;;6.72;5.10;;;19.30;76.80;;;;;;5001304;28;20117;-52
2023/08/01 05:18:15;;;;;;;6.93;5.18;;;19.30;76.80;;;;;;5011687;28;20049;-54
2023/08/01 05:20:42;;;;;;;7.88;5.32;;;19.30;76.80;;;;;;5013326;28;20053;-55
2023/08/01 05:23:09;;;;;;;8.50;5.55;;;19.30;76.70;;;;;;5021216;28;20053;-55
2023/08/01 05:25:36;;;;;;;11.50;5.65;;;19.30;76.50;;;;;;5007949;28;20498;-55
2023/08/01 05:28:02;;;;;;;7.72;4.95;;;19.30;76.40;;;;;;5020636;28;20138;-52
2023/08/01 05:30:29;;;;;;;8.27;5.00;;;19.30;76.30;;;;;;5007138;28;20046;-55
2023/08/01 05:33:01;;;;;;;7.65;4.70;;;19.30;76.50;;;;;;5014542;28;20504;-55
2023/08/01 05:35:28;;;;;;;7.57;5.40;;;19.30;76.80;;;;;;5023643;28;20068;-53
2023/08/01 05:37:54;;;;;;;7.75;4.78;;;19.30;76.90;;;;;;5016936;28;20070;-54
2023/08/01 05:40:21;;;;;;;7.68;4.75;;;19.40;76.90;;;;;;5017752;28;20157;-54
2023/08/01 05:42:48;;;;;;;7.78;5.10;;;19.40;76.90;;;;;;5009402;28;20049;-55
2023/08/01 05:45:14;;;;;;;6.50;4.88;;;19.40;76.80;;;;;;5009250;28;20082;-55
2023/08/01 05:47:41;;;;;;;7.72;4.97;;;19.50;76.70;;;;;;5002896;28;20054;-55
2023/08/01 05:50:08;;;;;;;7.15;5.70;;;19.50;76.70;;;;;;5021683;28;20033;-55
2023/08/01 05:52:35;;;;;;;9.35;5.18;;;19.50;76.60;;;;;;5024036;28;20118;-54
2023/08/01 05:55:02;;;;;;;8.45;5.18;;;19.60;76.50;;;;;;5015577;28;20037;-55
2023/08/01 05:57:30;;;;;;;6.90;4.43;;;19.60;76.30;;;;;;5018017;28;20041;-53
2023/08/01 05:59:56;;;;;;;7.18;4.97;;;19.60;76.20;;;;;;5011782;28;20049;-54
2023/08/01 06:02:23;;;;;;;9.30;5.43;;;19.70;76.30;;;;;;5014933;28;20049;-55
2023/08/01 06:04:50;;;;;;;4.88;4.18;;;19.60;76.00;;;;;;5015638;28;20046;-53
2023/08/01 06:07:22;;;;;;;7.70;5.47;;;19.70;75.80;;;;;;5024369;28;20044;-55
2023/08/01 06:09:51;;;;;;;8.15;5.68;;;19.70;75.90;;;;;;5009594;28;20118;-55
2023/08/01 06:12:18;;;;;;;10.88;5.00;;;19.70;76.10;;;;;;5025066;28;20053;-54
2023/08/01 06:14:46;;;;;;;7.97;5.20;;;19.70;76.10;;;;;;5022644;28;20045;-56
2023/08/01 06:17:13;;;;;;;8.27;5.80;;;19.80;76.00;;;;;;5007178;28;20095;-55
2023/08/01 06:19:39;;;;;;;9.45;5.70;;;19.80;75.80;;;;;;5009829;28;20595;-55
2023/08/01 06:22:06;;;;;;;6.95;5.80;;;19.90;75.80;;;;;;5024014;28;20053;-53
2023/08/01 06:24:33;;;;;;;6.43;5.45;;;19.90;75.70;;;;;;5023974;28;20056;-53
2023/08/01 06:27:00;;;;;;;8.20;5.75;;;20.00;75.60;;;;;;5007654;28;20374;-56
2023/08/01 06:29:27;;;;;;;9.32;6.10;;;20.00;75.60;;;;;;5009062;28;20050;-55
2023/08/01 06:31:53;;;;;;;7.53;5.13;;;20.00;75.50;;;;;;5020466;28;20552;-56
2023/08/01 06:34:20;;;;;;;7.82;4.85;;;20.10;75.40;;;;;;5024202;28;20041;-55
2023/08/01 06:36:47;;;;;;;7.63;5.68;;;20.20;75.70;;;;;;5022789;28;20456;-56
2023/08/01 06:39:13;;;;;;;8.55;5.50;;;20.30;75.40;;;;;;5008719;28;20431;-55
2023/08/01 06:41:40;;;;;;;12.02;5.50;;;20.30;75.10;;;;;;5016137;28;20041;-55
2023/08/01 06:44:07;;;;;;;8.70;5.65;;;20.40;74.60;;;;;;5024531;28;20056;-56
2023/08/01 06:46:33;;;;;;;11.00;5.80;;;20.40;74.40;;;;;;5024318;28;20057;-56
2023/08/01 06:49:01;;;;;;;8.30;5.65;;;20.50;74.10;;;;;;5017552;28;20076;-55
2023/08/01 06:51:27;;;;;;;8.50;6.05;;;20.60;73.50;;;;;;5020566;28;20096;-55
2023/08/01 06:53:54;;;;;;;7.75;6.03;;;20.60;73.00;;;;;;5008933;28;20041;-55
2023/08/01 06:56:22;;;;;;;7.90;5.38;;;20.60;72.90;;;;;;5027258;28;20041;-56
2023/08/01 06:58:48;;;;;;;6.43;5.53;;;20.60;72.70;;;;;;5023587;28;20496;-53
2023/08/01 07:01:15;;;;;;;9.65;5.38;;;20.60;72.50;;;;;;5015106;28;20557;-55
2023/08/01 07:03:42;;;;;;;9.45;6.03;;;20.60;72.70;;;;;;5027253;28;20446;-54
2023/08/01 07:06:10;;;;;;;10.32;5.43;;;20.60;72.40;;;;;;5025325;28;20050;-56
2023/08/01 07:08:36;;;;;;;7.10;5.40;;;20.70;72.40;;;;;;5010178;28;20105;-56
2023/08/01 07:11:03;;;;;;;10.68;5.78;;;20.70;72.40;;;;;;5022647;28;20050;-56
2023/08/01 07:13:30;;;;;;;6.75;5.80;;;20.70;72.40;;;;;;5027281;28;20107;-55
2023/08/01 07:15:56;;;;;;;6.35;4.68;;;20.70;72.10;;;;;;5010489;28;20042;-55
2023/08/01 07:18:23;;;;;;;8.85;5.75;;;20.70;72.20;;;;;;5018616;28;20121;-55
2023/08/01 07:21:02;;;;;;;9.93;5.78;;;20.70;72.00;;;;;;5017514;28;20061;-55
2023/08/01 07:23:30;;;;;;;7.20;4.60;;;20.70;71.80;;;;;;5026576;28;20057;-54
2023/08/01 07:25:57;;;;;;;8.02;5.18;;;20.80;71.90;;;;;;5008658;28;20124;-55
2023/08/01 07:28:23;;;;;;;6.38;4.63;;;20.80;71.70;;;;;;5027126;28;20091;-55
2023/08/01 07:31:05;;;;;;;6.60;4.60;;;20.80;71.60;;;;;;5004646;28;20045;-54
2023/08/01 07:33:33;;;;;;;5.20;4.27;;;20.80;71.10;;;;;;5022981;28;20037;-55
2023/08/01 07:36:00;;;;;;;6.03;5.07;;;20.90;71.30;;;;;;5016314;28;20073;-55
2023/08/01 07:38:27;;;;;;;7.60;5.50;;;20.90;71.30;;;;;;5017501;28;20121;-53
2023/08/01 07:40:55;;;;;;;13.45;5.57;;;20.90;71.10;;;;;;5018073;28;20046;-54
2023/08/01 07:43:23;;;;;;;6.60;4.95;;;20.90;71.10;;;;;;5016478;28;20041;-55
2023/08/01 07:45:54;;;;;;;5.25;4.22;;;20.90;71.20;;;;;;5018880;28;20066;-55
2023/08/01 07:48:21;;;;;;;5.90;4.20;;;20.90;71.10;;;;;;5007395;28;20052;-53
2023/08/01 07:50:48;;;;;;;8.45;5.60;;;21.00;71.00;;;;;;5019010;28;20332;-55
2023/08/01 07:53:14;;;;;;;7.53;3.90;;;21.10;70.70;;;;;;5024405;28;20447;-53
2023/08/01 07:55:41;;;;;;;5.47;4.13;;;21.10;70.80;;;;;;5017481;28;20046;-55
2023/08/01 07:58:08;;;;;;;5.00;3.88;;;21.20;70.70;;;;;;5020618;28;20112;-55
2023/08/01 08:00:35;;;;;;;6.65;4.30;;;21.20;70.90;;;;;;5008319;28;20073;-55
2023/08/01 08:03:02;;;;;;;4.97;4.22;;;21.30;70.60;;;;;;5020616;28;20037;-52
2023/08/01 08:05:29;;;;;;;8.05;4.30;;;21.30;70.20;;;;;;5023478;28;20043;-55
2023/08/01 08:07:55;;;;;;;6.03;4.05;;;21.40;69.80;;;;;;5012874;28;20516;-55
2023/08/01 08:10:22;;;;;;;6.95;3.50;;;21.40;69.50;;;;;;5013261;28;20034;-54
2023/08/01 08:12:49;;;;;;;6.13;4.18;;;21.40;69.20;;;;;;5020547;28;20041;-55
2023/08/01 08:15:17;;;;;;;5.90;4.50;;;21.50;68.80;;;;;;5023902;28;20157;-55
2023/08/01 08:17:44;;;;;;;7.10;4.45;;;21.50;68.60;;;;;;5020936;28;20115;-55
2023/08/01 08:20:10;;;;;;;6.43;4.55;;;21.50;68.70;;;;;;5019233;28;20056;-55
2023/08/01 08:22:37;;;;;;;5.60;4.40;;;21.50;69.10;;;;;;5020988;28;20046;-55
2023/08/01 08:25:04;;;;;;;7.50;4.60;;;21.60;69.10;;;;;;5019069;28;20073;-55
2023/08/01 08:27:31;;;;;;;6.65;4.78;;;21.60;68.80;;;;;;5017949;28;20136;-53
2023/08/01 08:29:57;;;;;;;7.07;3.95;;;21.70;68.60;;;;;;5009562;28;20066;-55
2023/08/01 08:32:24;;;;;;;7.07;4.30;;;21.80;68.50;;;;;;5020421;28;20133;-55
2023/08/01 08:34:51;;;;;;;6.90;4.60;;;21.80;68.00;;;;;;5021744;28;20041;-55
2023/08/01 08:37:17;;;;;;;6.65;4.63;;;21.80;68.10;;;;;;5011504;28;20097;-53
2023/08/01 08:39:44;;;;;;;6.57;4.07;;;21.90;67.60;;;;;;5017275;28;20056;-52
2023/08/01 08:42:11;;;;;;;6.38;4.90;;;21.90;67.30;;;;;;5010670;28;20045;-55
2023/08/01 08:44:43;;;;;;;5.97;4.07;;;21.90;67.10;;;;;;5013616;28;20228;-55
2023/08/01 08:47:12;;;;;;;4.85;4.20;;;21.90;67.30;;;;;;5010596;28;20050;-55
2023/08/01 08:49:40;;;;;;;5.40;4.43;;;22.00;68.00;;;;;;5023001;28;20072;-55
2023/08/01 08:52:08;;;;;;;7.18;4.68;;;22.00;67.70;;;;;;5019334;28;20038;-51
2023/08/01 08:54:36;;;;;;;5.40;4.55;;;22.00;67.60;;;;;;5006839;28;20496;-55
2023/08/01 08:57:06;;;;;;;6.80;4.55;;;22.20;68.20;;;;;;5016825;28;20519;-55
2023/08/01 08:59:34;;;;;;;5.95;4.30;;;22.20;67.60;;;;;;5010087;28;20054;-55
2023/08/01 09:02:03;;;;;;;5.93;4.25;;;22.30;68.00;;;;;;5015166;28;20489;-55
2023/08/01 09:04:33;;;;;;;8.48;4.35;;;22.40;67.50;;;;;;5013970;28;20049;-54
2023/08/01 09:07:05;;;;;;;7.63;4.22;;;22.50;66.80;;;;;;5011282;28;20043;-55
2023/08/01 09:09:34;;;;;;;8.60;4.40;;;22.60;66.00;;;;;;5015379;28;20128;-55
2023/08/01 09:12:01;;;;;;;6.15;3.80;;;22.60;65.20;;;;;;5029676;28;20706;-55
2023/08/01 09:14:29;;;;;;;6.60;3.95;;;22.70;65.60;;;;;;5016505;28;20061;-53
2023/08/01 09:17:04;;;;;;;5.90;3.90;;;22.70;65.20;;;;;;5018073;28;20049;-55
2023/08/01 09:19:31;;;;;;;7.97;3.45;;;22.70;64.90;;;;;;5021745;28;20395;-55
2023/08/01 09:21:58;;;;;;;6.38;4.20;;;22.80;65.20;;;;;;5017478;28;20068;-55
2023/08/01 09:24:25;;;;;;;6.60;3.95;;;22.80;64.20;;;;;;5013534;28;20052;-55
2023/08/01 09:26:52;;;;;;;5.53;3.63;;;23.00;64.20;;;;;;5016660;28;20095;-55
2023/08/01 09:29:20;;;;;;;6.95;4.13;;;22.90;64.20;;;;;;5014842;28;20066;-55
2023/08/01 09:31:49;;;;;;;7.22;3.90;;;23.00;64.40;;;;;;5012661;28;20037;-54
2023/08/01 09:34:21;;;;;;;4.80;3.67;;;23.00;64.00;;;;;;5019358;28;20050;-55
2023/08/01 09:36:49;;;;;;;6.65;3.85;;;23.10;64.00;;;;;;5017335;28;20100;-54
2023/08/01 09:39:20;;;;;;;4.78;3.78;;;23.20;63.70;;;;;;5013823;28;20039;-55
2023/08/01 09:42:01;;;;;;;7.13;3.65;;;23.30;62.10;;;;;;5018577;28;20033;-55
2023/08/01 09:44:29;;;;;;;5.45;3.72;;;23.40;62.90;;;;;;5020423;28;20068;-54
2023/08/01 09:46:57;;;;;;;4.32;3.28;;;23.40;63.70;;;;;;5015214;28;20127;-55
2023/08/01 09:49:24;;;;;;;4.72;3.47;;;23.50;62.50;;;;;;5006093;28;20101;-54
2023/08/01 09:51:51;;;;;;;5.85;3.95;;;23.50;62.10;;;;;;5018126;28;20248;-54
2023/08/01 09:54:18;;;;;;;5.63;3.50;;;23.60;61.50;;;;;;5016741;28;20117;-53
2023/08/01 09:56:50;;;;;;;5.90;3.30;;;23.50;60.80;;;;;;5018588;28;20050;-55
2023/08/01 09:59:25;;;;;;;5.07;3.63;;;23.60;60.80;;;;;;5013655;28;20514;-52
2023/08/01 10:01:53;;;;;;;5.50;3.10;;;23.60;60.30;;;;;;5009146;28;20523;-55
2023/08/01 10:04:26;;;;;;;3.88;3.17;;;23.60;60.90;;;;;;5017666;28;20038;-50
2023/08/01 10:07:08;;;;;;;4.57;3.50;;;23.60;60.30;;;;;;5016339;28;20124;-55
2023/08/01 10:09:36;;;;;;;4.20;3.30;;;23.70;59.60;;;;;;5003776;28;20048;-55
2023/08/01 10:12:05;;;;;;;7.20;4.13;;;23.60;60.90;;;;;;5015271;28;20080;-55
2023/08/01 10:14:32;;;;;;;6.03;3.47;;;23.70;59.90;;;;;;5016804;28;20052;-53
2023/08/01 10:16:59;;;;;;;3.58;3.28;;;23.70;59.60;;;;;;5003526;28;20065;-55
2023/08/01 10:19:26;;;;;;;8.15;3.58;;;23.60;59.40;;;;;;5016293;28;20042;-54
2023/08/01 10:21:54;;;;;;;6.25;3.22;;;23.60;59.30;;;;;;5015003;28;20057;-52
2023/08/01 10:24:23;;;;;;;4.97;2.92;;;23.60;58.70;;;;;;5009278;28;20050;-54
2023/08/01 10:26:51;;;;;;;3.40;2.88;;;23.50;58.90;;;;;;5010247;28;20052;-51
2023/08/01 10:29:18;;;;;;;5.00;2.95;;;23.50;58.90;;;;;;5011911;28;20081;-54
2023/08/01 10:31:54;;;;;;;4.97;3.10;;;23.50;59.30;;;;;;5009376;28;20459;-54
2023/08/01 10:34:24;;;;;;;4.45;3.08;;;23.60;59.40;;;;;;5012280;28;20526;-54
2023/08/01 10:36:58;;;;;;;4.55;3.50;;;23.60;59.20;;;;;;5012525;28;20049;-53
2023/08/01 10:39:26;;;;;;;5.05;2.88;;;23.70;58.40;;;;;;5006690;28;20113;-54
2023/08/01 10:42:05;;;;;;;5.88;3.50;;;23.70;59.40;;;;;;5014163;28;20056;-54
2023/08/01 10:44:34;;;;;;;4.05;2.88;;;23.80;58.50;;;;;;5016920;28;20502;-54
2023/08/01 10:47:02;;;;;;;4.13;3.05;;;23.80;59.40;;;;;;5003391;28;20070;-53
2023/08/01 10:49:43;;;;;;;2.78;2.50;;;23.80;58.60;;;;;;5015147;28;20042;-52
2023/08/01 10:52:27;;;;;;;4.82;2.08;;;23.80;58.40;;;;;;5010174;28;20038;-54
2023/08/01 10:55:05;;;;;;;4.50;2.38;;;23.70;59.10;;;;;;5007263;28;20053;-54
2023/08/01 10:57:38;;;;;;;5.97;2.38;;;23.40;59.80;;;;;;5007929;28;20093;-54
2023/08/01 11:00:09;;;;;;;10.55;3.35;;;23.00;62.30;;;;;;4994170;28;20647;-53
2023/08/01 11:02:37;;;;;;;5.95;2.78;;;22.50;62.50;;;;;;5000374;28;20053;-53
2023/08/01 11:05:06;;;;;;;13.20;4.13;;;22.00;63.90;;;;;;5009271;28;20066;-54
2023/08/01 11:07:34;;;;;;;5.22;3.10;;;21.50;65.60;;;;;;5016091;28;20108;-52
2023/08/01 11:10:11;;;;;;;3.80;3.47;;;21.10;67.40;;;;;;5001478;28;20049;-51
2023/08/01 11:12:42;;;;;;;6.18;3.83;;;20.70;70.60;;;;;;5006389;28;20038;-52
2023/08/01 11:15:14;;;;;;;4.38;3.90;;;20.50;71.70;;;;;;5007653;28;20050;-52
2023/08/01 11:17:43;;;;;;;;;;;20.30;74.10;;;;;;5008331;28;20041;-52
2023/08/01 11:20:11;;;;;;;5.85;3.85;;;20.20;75.40;;;;;;5009489;28;20020;-48
2023/08/01 11:22:49;;;;;;;3.90;3.50;;;20.10;75.90;;;;;;5014321;28;20616;-50
2023/08/01 11:25:16;;;;;;;6.22;3.97;;;20.10;77.30;;;;;;5008361;28;20077;-49
2023/08/01 11:27:43;;;;;;;4.57;4.18;;;20.00;77.90;;;;;;5000441;28;20084;-51
2023/08/01 11:30:10;;;;;;;5.05;4.55;;;20.00;78.90;;;;;;5007027;28;20484;-49
2023/08/01 11:32:38;;;;;;;6.70;4.50;;;20.00;78.40;;;;;;5009232;28;20037;-51
2023/08/01 11:35:05;;;;;;;8.15;5.43;;;20.00;78.70;;;;;;5012645;28;20100;-50
2023/08/01 11:37:33;;;;;;;4.63;4.22;;;20.00;78.70;;;;;;5018032;28;20041;-51
2023/08/01 11:40:00;;;;;;;5.22;4.03;;;19.90;78.10;;;;;;5009493;28;20113;-52
2023/08/01 11:42:31;;;;;;;4.68;3.80;;;19.80;77.50;;;;;;5015086;28;20045;-51
2023/08/01 11:45:15;;;;;;;3.77;3.13;;;19.80;78.30;;;;;;5012389;28;20037;-51
2023/08/01 11:47:46;;;;;;;4.68;2.95;;;19.70;78.70;;;;;;5009029;28;20308;-51
2023/08/01 11:50:14;;;;;;;3.47;2.67;;;19.60;79.30;;;;;;5012068;28;20053;-51
2023/08/01 11:52:40;;;;;;;5.03;2.75;;;19.60;79.50;;;;;;5015146;28;20091;-51
2023/08/01 11:55:08;;;;;;;6.00;3.13;;;19.60;80.00;;;;;;5014798;28;20069;-52
2023/08/01 11:57:34;;;;;;;5.97;3.22;;;19.50;80.10;;;;;;5012246;28;20121;-47
2023/08/01 12:00:01;;;;;;;6.75;3.40;;;19.60;80.40;;;;;;5011213;28;20065;-52
2023/08/01 12:02:37;;;;;;;3.78;3.40;;;19.50;80.90;;;;;;5016088;28;20595;-51
2023/08/01 12:05:04;;;;;;;6.40;3.92;;;19.60;81.60;;;;;;5013862;28;20065;-48
2023/08/01 12:07:31;;;;;;;7.93;4.22;;;19.60;81.90;;;;;;5014317;28;20534;-52
2023/08/01 12:09:59;;;;;;;4.63;3.38;;;19.60;82.80;;;;;;5012136;28;20580;-51
2023/08/01 12:12:27;;;;;;;5.50;3.90;;;19.70;83.10;;;;;;5014195;28;20634;-50
2023/08/01 12:14:55;;;;;;;5.65;3.95;;;19.70;83.40;;;;;;5015094;28;20401;-52
2023/08/01 12:17:25;;;;;;;4.95;4.13;;;19.80;83.70;;;;;;5007078;28;20046;-52
2023/08/01 12:19:52;;;;;;;5.30;4.80;;;20.00;84.70;;;;;;5013814;28;20049;-52
2023/08/01 12:22:19;;;;;;;4.53;4.10;;;20.00;84.40;;;;;;5013317;28;20125;-51
2023/08/01 12:24:45;;;;;;;4.82;4.00;;;20.20;84.40;;;;;;5013512;28;20065;-49
2023/08/01 12:27:12;;;;;;;8.25;3.80;;;20.20;84.70;;;;;;5002465;28;20070;-52
2023/08/01 12:29:39;;;;;;;5.50;4.35;;;20.40;84.40;;;;;;5005508;28;20046;-51
2023/08/01 12:32:09;;;;;;;6.88;4.80;;;20.50;84.40;;;;;;5010678;28;20092;-51
2023/08/01 12:34:35;;;;;;;11.40;4.85;;;20.60;85.20;;;;;;5014267;28;20124;-52
2023/08/01 12:37:02;;;;;;;8.23;4.32;;;20.70;84.70;;;;;;5012167;28;20061;-49
2023/08/01 12:39:29;;;;;;;6.20;3.83;;;20.80;84.40;;;;;;5001666;28;20081;-48
2023/08/01 12:41:55;;;;;;;7.60;3.90;;;20.90;84.50;;;;;;5011779;28;20053;-51
2023/08/01 12:44:22;;;;;;;7.75;4.28;;;21.00;84.30;;;;;;5012435;28;20060;-51
2023/08/01 12:46:49;;;;;;;4.63;3.72;;;21.20;85.00;;;;;;5009132;28;20093;-49
2023/08/01 12:49:18;;;;;;;6.38;4.45;;;21.30;84.70;;;;;;5005654;28;20069;-52
2023/08/01 12:51:45;;;;;;;6.43;3.72;;;21.50;84.00;;;;;;5009387;28;20041;-52